sensor_id;sensor_type;location;lat;lon;timestamp;pressure;altitude;pressure_sealevel;temperature;humidity
8451;BME280;4262;50.980;13.892;2023-04-02T05:03:05;50360.94;;;-142.97;29.53
8451;BME280;4262;50.980;13.892;2023-04-02T05:05:43;50341.44;;;-142.97;29.32
8451;BME280;4262;50.980;13.892;2023-04-02T05:08:15;50329.72;;;-142.97;29.49
8451;BME280;4262;50.980;13.892;2023-04-02T05:10:49;50335.59;;;-142.97;28.83
8451;BME280;4262;50.980;13.892;2023-04-02T05:13:20;50335.59;;;-142.97;28.74
8451;BME280;4262;50.980;13.892;2023-04-02T05:15:56;50345.34;;;-142.97;29.58
8451;BME280;4262;50.980;13.892;2023-04-02T05:18:31;50337.53;;;-142.97;29.48
8451;BME280;4262;50.980;13.892;2023-04-02T05:21:06;50323.88;;;-142.97;30.02
8451;BME280;4262;50.980;13.892;2023-04-02T05:23:45;50331.69;;;-142.97;29.42
8451;BME280;4262;50.980;13.892;2023-04-02T05:26:18;50325.84;;;-142.97;29.58
8451;BME280;4262;50.980;13.892;2023-04-02T05:28:52;50325.84;;;-142.97;29.96
8451;BME280;4262;50.980;13.892;2023-04-02T05:31:23;50347.28;;;-142.97;29.89
8451;BME280;4262;50.980;13.892;2023-04-02T05:33:54;50314.13;;;-142.97;29.06
8451;BME280;4262;50.980;13.892;2023-04-02T05:36:24;50333.63;;;-142.97;29.68
8451;BME280;4262;50.980;13.892;2023-04-02T05:38:57;50316.09;;;-142.97;29.87
8451;BME280;4262;50.980;13.892;2023-04-02T05:41:33;50368.72;;;-142.97;29.86
8451;BME280;4262;50.980;13.892;2023-04-02T05:44:06;50296.59;;;-142.97;29.99
8451;BME280;4262;50.980;13.892;2023-04-02T05:46:42;50320.00;;;-142.97;29.73
8451;BME280;4262;50.980;13.892;2023-04-02T05:49:18;50339.47;;;-142.97;29.48
8451;BME280;4262;50.980;13.892;2023-04-02T05:51:49;50321.94;;;-142.97;29.92
8451;BME280;4262;50.980;13.892;2023-04-02T05:54:22;50302.44;;;-142.97;28.78
8451;BME280;4262;50.980;13.892;2023-04-02T05:56:59;50339.47;;;-142.97;29.29
8451;BME280;4262;50.980;13.892;2023-04-02T05:59:29;50310.25;;;-142.97;29.21
8451;BME280;4262;50.980;13.892;2023-04-02T06:01:59;50310.25;;;-142.97;28.77
8451;BME280;4262;50.980;13.892;2023-04-02T06:04:38;50292.69;;;-142.97;29.10
8451;BME280;4262;50.980;13.892;2023-04-02T06:07:14;50314.13;;;-142.97;29.25
8451;BME280;4262;50.980;13.892;2023-04-02T06:09:52;50321.94;;;-142.97;28.68
8451;BME280;4262;50.980;13.892;2023-04-02T06:12:27;50339.47;;;-142.97;28.13
8451;BME280;4262;50.980;13.892;2023-04-02T06:14:56;50304.38;;;-142.97;28.63
8451;BME280;4262;50.980;13.892;2023-04-02T06:17:28;50337.53;;;-142.97;28.13
8451;BME280;4262;50.980;13.892;2023-04-02T06:19:58;50345.34;;;-142.97;28.15
8451;BME280;4262;50.980;13.892;2023-04-02T06:22:33;50316.09;;;-142.97;28.27
8451;BME280;4262;50.980;13.892;2023-04-02T06:25:05;50320.00;;;-142.97;28.58
8451;BME280;4262;50.980;13.892;2023-04-02T06:27:40;50308.28;;;-142.97;28.39
8451;BME280;4262;50.980;13.892;2023-04-02T06:30:16;50325.84;;;-142.97;28.69
8451;BME280;4262;50.980;13.892;2023-04-02T06:32:46;50318.03;;;-142.97;29.03
8451;BME280;4262;50.980;13.892;2023-04-02T06:35:16;50345.34;;;-142.97;28.75
8451;BME280;4262;50.980;13.892;2023-04-02T06:37:50;50320.00;;;-142.97;28.80
8451;BME280;4262;50.980;13.892;2023-04-02T06:40:30;50318.03;;;-142.97;29.29
8451;BME280;4262;50.980;13.892;2023-04-02T06:43:07;50325.84;;;-142.97;30.06
8451;BME280;4262;50.980;13.892;2023-04-02T06:46:08;50312.19;;;-142.97;30.03
8451;BME280;4262;50.980;13.892;2023-04-02T06:49:00;50312.19;;;-142.97;29.66
8451;BME280;4262;50.980;13.892;2023-04-02T06:51:32;50329.72;;;-142.97;29.94
8451;BME280;4262;50.980;13.892;2023-04-02T06:54:02;50302.44;;;-142.97;29.67
8451;BME280;4262;50.980;13.892;2023-04-02T06:56:40;50302.44;;;-142.97;29.92
8451;BME280;4262;50.980;13.892;2023-04-02T06:59:10;50331.69;;;-142.97;30.11
8451;BME280;4262;50.980;13.892;2023-04-02T07:01:41;50312.19;;;-142.97;29.65
8451;BME280;4262;50.980;13.892;2023-04-02T07:04:09;50341.44;;;-142.97;29.21
8451;BME280;4262;50.980;13.892;2023-04-02T07:06:43;50320.00;;;-142.97;29.48
8451;BME280;4262;50.980;13.892;2023-04-02T07:09:12;50318.03;;;-142.97;29.65
8451;BME280;4262;50.980;13.892;2023-04-02T07:11:42;50329.72;;;-142.97;29.10
8451;BME280;4262;50.980;13.892;2023-04-02T07:14:11;50335.59;;;-142.97;29.43
8451;BME280;4262;50.980;13.892;2023-04-02T07:16:40;50316.09;;;-142.97;28.85
8451;BME280;4262;50.980;13.892;2023-04-02T07:19:16;50306.34;;;-142.97;28.35
8451;BME280;4262;50.980;13.892;2023-04-02T07:21:45;50314.13;;;-142.97;28.77
8451;BME280;4262;50.980;13.892;2023-04-02T07:24:12;50292.69;;;-142.97;28.90
8451;BME280;4262;50.980;13.892;2023-04-02T07:26:41;50298.53;;;-142.97;28.35
8451;BME280;4262;50.980;13.892;2023-04-02T07:29:12;50329.72;;;-142.97;27.78
8451;BME280;4262;50.980;13.892;2023-04-02T07:31:40;50339.47;;;-142.97;27.98
8451;BME280;4262;50.980;13.892;2023-04-02T07:34:07;50323.88;;;-142.97;28.35
8451;BME280;4262;50.980;13.892;2023-04-02T07:36:35;50318.03;;;-142.97;28.27
8451;BME280;4262;50.980;13.892;2023-04-02T07:39:04;50310.25;;;-142.97;27.55
8451;BME280;4262;50.980;13.892;2023-04-02T07:41:31;50347.28;;;-142.97;27.62
8451;BME280;4262;50.980;13.892;2023-04-02T07:43:58;50333.63;;;-142.97;27.11
8451;BME280;4262;50.980;13.892;2023-04-02T07:46:26;50333.63;;;-142.97;26.94
8451;BME280;4262;50.980;13.892;2023-04-02T07:48:52;50325.84;;;-142.97;28.08
8451;BME280;4262;50.980;13.892;2023-04-02T07:51:21;50298.53;;;-142.97;27.15
8451;BME280;4262;50.980;13.892;2023-04-02T07:53:48;50343.38;;;-142.97;27.06
8451;BME280;4262;50.980;13.892;2023-04-02T07:56:22;50320.00;;;-142.97;26.95
8451;BME280;4262;50.980;13.892;2023-04-02T07:58:49;50337.53;;;-142.97;27.35
8451;BME280;4262;50.980;13.892;2023-04-02T08:01:18;50314.13;;;-142.97;27.64
8451;BME280;4262;50.980;13.892;2023-04-02T08:03:45;50302.44;;;-142.97;27.35
8451;BME280;4262;50.980;13.892;2023-04-02T08:06:13;50337.53;;;-142.97;27.45
8451;BME280;4262;50.980;13.892;2023-04-02T08:08:41;50316.09;;;-142.97;27.39
8451;BME280;4262;50.980;13.892;2023-04-02T08:11:08;50329.72;;;-142.97;26.87
8451;BME280;4262;50.980;13.892;2023-04-02T08:13:37;50306.34;;;-142.97;27.49
8451;BME280;4262;50.980;13.892;2023-04-02T08:16:06;50325.84;;;-142.97;26.97
8451;BME280;4262;50.980;13.892;2023-04-02T08:18:33;50329.72;;;-142.97;27.07
8451;BME280;4262;50.980;13.892;2023-04-02T08:21:04;50327.78;;;-142.97;27.21
8451;BME280;4262;50.980;13.892;2023-04-02T08:23:32;50310.25;;;-142.97;26.65
8451;BME280;4262;50.980;13.892;2023-04-02T08:25:59;50335.59;;;-142.97;26.99
8451;BME280;4262;50.980;13.892;2023-04-02T08:28:28;50318.03;;;-142.97;27.35
8451;BME280;4262;50.980;13.892;2023-04-02T08:30:56;50304.38;;;-142.97;27.01
8451;BME280;4262;50.980;13.892;2023-04-02T08:33:23;50306.34;;;-142.97;27.57
8451;BME280;4262;50.980;13.892;2023-04-02T08:35:52;50308.28;;;-142.97;27.84
8451;BME280;4262;50.980;13.892;2023-04-02T08:38:20;50284.91;;;-142.97;27.39
8451;BME280;4262;50.980;13.892;2023-04-02T08:40:49;50302.44;;;-142.97;28.07
8451;BME280;4262;50.980;13.892;2023-04-02T08:46:10;50318.03;;;-142.97;27.91
8451;BME280;4262;50.980;13.892;2023-04-02T08:48:43;50298.53;;;-142.97;27.41
8451;BME280;4262;50.980;13.892;2023-04-02T08:51:20;50302.44;;;-142.97;27.28
8451;BME280;4262;50.980;13.892;2023-04-02T08:53:47;50290.75;;;-142.97;27.06
8451;BME280;4262;50.980;13.892;2023-04-02T08:56:17;50302.44;;;-142.97;26.79
8451;BME280;4262;50.980;13.892;2023-04-02T08:58:47;50292.69;;;-142.97;27.00
8451;BME280;4262;50.980;13.892;2023-04-02T09:01:24;50316.09;;;-142.97;27.13
8451;BME280;4262;50.980;13.892;2023-04-02T09:03:54;50316.09;;;-142.97;26.82
8451;BME280;4262;50.980;13.892;2023-04-02T09:06:25;50314.13;;;-142.97;26.75
8451;BME280;4262;50.980;13.892;2023-04-02T09:08:56;50308.28;;;-142.97;26.94
8451;BME280;4262;50.980;13.892;2023-04-02T09:11:24;50316.09;;;-142.97;26.81
8451;BME280;4262;50.980;13.892;2023-04-02T09:13:57;50333.63;;;-142.97;26.44
8451;BME280;4262;50.980;13.892;2023-04-02T09:16:36;50281.00;;;-142.97;26.50
8451;BME280;4262;50.980;13.892;2023-04-02T09:19:17;50341.44;;;-142.97;26.09
8451;BME280;4262;50.980;13.892;2023-04-02T09:21:50;50304.38;;;-142.97;26.88
8451;BME280;4262;50.980;13.892;2023-04-02T09:24:18;50308.28;;;-142.97;27.31
8451;BME280;4262;50.980;13.892;2023-04-02T09:26:45;50300.50;;;-142.97;27.25
8451;BME280;4262;50.980;13.892;2023-04-02T09:29:27;50294.63;;;-142.97;26.77
8451;BME280;4262;50.980;13.892;2023-04-02T09:32:06;50318.03;;;-142.97;26.46
8451;BME280;4262;50.980;13.892;2023-04-02T09:34:35;50316.09;;;-142.97;27.00
8451;BME280;4262;50.980;13.892;2023-04-02T09:37:07;50300.50;;;-142.97;26.97
8451;BME280;4262;50.980;13.892;2023-04-02T09:39:34;50337.53;;;-142.97;27.14
8451;BME280;4262;50.980;13.892;2023-04-02T09:42:05;50292.69;;;-142.97;26.68
8451;BME280;4262;50.980;13.892;2023-04-02T09:44:32;50312.19;;;-142.97;26.87
8451;BME280;4262;50.980;13.892;2023-04-02T09:47:04;50321.94;;;-142.97;27.10
8451;BME280;4262;50.980;13.892;2023-04-02T09:49:32;50321.94;;;-142.97;26.36
8451;BME280;4262;50.980;13.892;2023-04-02T09:52:25;50331.69;;;-142.97;26.83
8451;BME280;4262;50.980;13.892;2023-04-02T09:55:17;50304.38;;;-142.97;26.74
8451;BME280;4262;50.980;13.892;2023-04-02T09:57:47;50331.69;;;-142.97;26.82
8451;BME280;4262;50.980;13.892;2023-04-02T10:00:18;50304.38;;;-142.97;27.10
8451;BME280;4262;50.980;13.892;2023-04-02T10:03:00;50304.38;;;-142.97;27.85
8451;BME280;4262;50.980;13.892;2023-04-02T10:05:27;50292.69;;;-142.97;26.68
8451;BME280;4262;50.980;13.892;2023-04-02T10:08:05;50312.19;;;-142.97;26.46
8451;BME280;4262;50.980;13.892;2023-04-02T10:10:36;50329.72;;;-142.97;26.20
8451;BME280;4262;50.980;13.892;2023-04-02T10:13:07;50321.94;;;-142.97;26.44
8451;BME280;4262;50.980;13.892;2023-04-02T10:15:42;50325.84;;;-142.97;26.72
8451;BME280;4262;50.980;13.892;2023-04-02T10:18:15;50320.00;;;-142.97;26.80
8451;BME280;4262;50.980;13.892;2023-04-02T10:20:50;50294.63;;;-142.97;27.07
8451;BME280;4262;50.980;13.892;2023-04-02T10:23:18;50302.44;;;-142.97;26.88
8451;BME280;4262;50.980;13.892;2023-04-02T10:25:48;50314.13;;;-142.97;26.44
8451;BME280;4262;50.980;13.892;2023-04-02T10:28:33;50300.50;;;-142.97;26.94
8451;BME280;4262;50.980;13.892;2023-04-02T10:31:11;50282.94;;;-142.97;26.70
8451;BME280;4262;50.980;13.892;2023-04-02T10:33:46;50335.59;;;-142.97;27.13
8451;BME280;4262;50.980;13.892;2023-04-02T10:36:44;50292.69;;;-142.97;26.58
8451;BME280;4262;50.980;13.892;2023-04-02T10:39:19;50337.53;;;-142.97;27.49
8451;BME280;4262;50.980;13.892;2023-04-02T10:41:52;50316.09;;;-142.97;26.99
8451;BME280;4262;50.980;13.892;2023-04-02T10:44:39;50329.72;;;-142.97;26.70
8451;BME280;4262;50.980;13.892;2023-04-02T10:47:21;50310.25;;;-142.97;26.41
8451;BME280;4262;50.980;13.892;2023-04-02T10:50:00;50310.25;;;-142.97;25.86
8451;BME280;4262;50.980;13.892;2023-04-02T10:52:35;50306.34;;;-142.97;25.96
8451;BME280;4262;50.980;13.892;2023-04-02T10:55:12;50320.00;;;-142.97;26.10
8451;BME280;4262;50.980;13.892;2023-04-02T10:57:42;50304.38;;;-142.97;25.62
8451;BME280;4262;50.980;13.892;2023-04-02T11:00:17;50314.13;;;-142.97;25.91
8451;BME280;4262;50.980;13.892;2023-04-02T11:02:49;50306.34;;;-142.97;25.51
8451;BME280;4262;50.980;13.892;2023-04-02T11:05:25;50312.19;;;-142.97;25.33
8451;BME280;4262;50.980;13.892;2023-04-02T11:08:00;50302.44;;;-142.97;25.06
8451;BME280;4262;50.980;13.892;2023-04-02T11:10:31;50345.34;;;-142.97;25.54
8451;BME280;4262;50.980;13.892;2023-04-02T11:13:03;50335.59;;;-142.97;25.09
8451;BME280;4262;50.980;13.892;2023-04-02T11:15:31;50314.13;;;-142.97;25.69
8451;BME280;4262;50.980;13.892;2023-04-02T11:17:59;50329.72;;;-142.97;25.28
8451;BME280;4262;50.980;13.892;2023-04-02T11:20:59;50302.44;;;-142.97;25.28
8451;BME280;4262;50.980;13.892;2023-04-02T11:23:30;50300.50;;;-142.97;25.38
8451;BME280;4262;50.980;13.892;2023-04-02T11:26:30;50310.25;;;-142.97;26.06
8451;BME280;4262;50.980;13.892;2023-04-02T11:29:11;50318.03;;;-142.97;26.17
8451;BME280;4262;50.980;13.892;2023-04-02T11:31:40;50318.03;;;-142.97;25.23
8451;BME280;4262;50.980;13.892;2023-04-02T11:34:11;50271.25;;;-142.97;25.04
8451;BME280;4262;50.980;13.892;2023-04-02T11:36:59;50323.88;;;-142.97;25.12
8451;BME280;4262;50.980;13.892;2023-04-02T11:39:47;50318.03;;;-142.97;25.20
8451;BME280;4262;50.980;13.892;2023-04-02T11:42:35;50310.25;;;-142.97;25.54
8451;BME280;4262;50.980;13.892;2023-04-02T11:48:25;50304.38;;;-142.97;24.95
8451;BME280;4262;50.980;13.892;2023-04-02T11:50:53;50302.44;;;-142.97;25.21
8451;BME280;4262;50.980;13.892;2023-04-02T11:53:31;50329.72;;;-142.97;25.98
8451;BME280;4262;50.980;13.892;2023-04-02T11:56:07;50286.84;;;-142.97;25.25
8451;BME280;4262;50.980;13.892;2023-04-02T11:58:47;50318.03;;;-142.97;25.78
8451;BME280;4262;50.980;13.892;2023-04-02T12:01:32;50304.38;;;-142.97;26.20
8451;BME280;4262;50.980;13.892;2023-04-02T12:04:25;50339.47;;;-142.97;25.47
8451;BME280;4262;50.980;13.892;2023-04-02T12:07:04;50337.53;;;-142.97;26.20
8451;BME280;4262;50.980;13.892;2023-04-02T12:09:44;50302.44;;;-142.97;25.62
8451;BME280;4262;50.980;13.892;2023-04-02T12:12:21;50310.25;;;-142.97;26.01
8451;BME280;4262;50.980;13.892;2023-04-02T12:14:51;50333.63;;;-142.97;25.98
8451;BME280;4262;50.980;13.892;2023-04-02T12:17:24;50296.59;;;-142.97;25.87
8451;BME280;4262;50.980;13.892;2023-04-02T12:19:55;50302.44;;;-142.97;25.80
8451;BME280;4262;50.980;13.892;2023-04-02T12:22:24;50306.34;;;-142.97;25.80
8451;BME280;4262;50.980;13.892;2023-04-02T12:24:57;50351.19;;;-142.97;25.55
8451;BME280;4262;50.980;13.892;2023-04-02T12:27:26;50337.53;;;-142.97;25.42
8451;BME280;4262;50.980;13.892;2023-04-02T12:29:54;50306.34;;;-142.97;25.40
8451;BME280;4262;50.980;13.892;2023-04-02T12:32:26;50298.53;;;-142.97;24.98
8451;BME280;4262;50.980;13.892;2023-04-02T12:34:55;50329.72;;;-142.97;25.02
8451;BME280;4262;50.980;13.892;2023-04-02T12:37:24;50310.25;;;-142.97;25.14
8451;BME280;4262;50.980;13.892;2023-04-02T12:39:57;50308.28;;;-142.97;25.13
8451;BME280;4262;50.980;13.892;2023-04-02T12:42:30;50321.94;;;-142.97;24.76
8451;BME280;4262;50.980;13.892;2023-04-02T12:44:58;50292.69;;;-142.97;24.92
8451;BME280;4262;50.980;13.892;2023-04-02T12:47:25;50286.84;;;-142.97;24.89
8451;BME280;4262;50.980;13.892;2023-04-02T12:49:53;50273.19;;;-142.97;26.47
8451;BME280;4262;50.980;13.892;2023-04-02T12:52:24;50288.78;;;-142.97;25.28
8451;BME280;4262;50.980;13.892;2023-04-02T12:54:56;50335.59;;;-142.97;25.22
8451;BME280;4262;50.980;13.892;2023-04-02T12:57:36;50333.63;;;-142.97;24.79
8451;BME280;4262;50.980;13.892;2023-04-02T13:00:29;50310.25;;;-142.97;25.01
8451;BME280;4262;50.980;13.892;2023-04-02T13:05:45;50339.47;;;-142.97;25.29
8451;BME280;4262;50.980;13.892;2023-04-02T13:08:17;50353.13;;;-142.97;25.29
8451;BME280;4262;50.980;13.892;2023-04-02T13:10:51;50333.63;;;-142.97;25.38
8451;BME280;4262;50.980;13.892;2023-04-02T13:13:22;50298.53;;;-142.97;25.37
8451;BME280;4262;50.980;13.892;2023-04-02T13:16:00;50310.25;;;-142.97;25.30
8451;BME280;4262;50.980;13.892;2023-04-02T13:18:30;50341.44;;;-142.97;24.86
8451;BME280;4262;50.980;13.892;2023-04-02T13:21:00;50327.78;;;-142.97;25.25
8451;BME280;4262;50.980;13.892;2023-04-02T13:23:33;50310.25;;;-142.97;25.06
8451;BME280;4262;50.980;13.892;2023-04-02T13:26:10;50337.53;;;-142.97;25.41
8451;BME280;4262;50.980;13.892;2023-04-02T13:28:39;50320.00;;;-142.97;25.40
8451;BME280;4262;50.980;13.892;2023-04-02T13:31:13;50325.84;;;-142.97;25.72
8451;BME280;4262;50.980;13.892;2023-04-02T13:33:41;50321.94;;;-142.97;25.67
8451;BME280;4262;50.980;13.892;2023-04-02T13:36:10;50302.44;;;-142.97;25.93
8451;BME280;4262;50.980;13.892;2023-04-02T13:38:38;50337.53;;;-142.97;26.21
8451;BME280;4262;50.980;13.892;2023-04-02T13:41:11;50325.84;;;-142.97;25.73
8451;BME280;4262;50.980;13.892;2023-04-02T13:43:43;50310.25;;;-142.97;25.93
8451;BME280;4262;50.980;13.892;2023-04-02T13:46:16;50325.84;;;-142.97;25.40
8451;BME280;4262;50.980;13.892;2023-04-02T13:48:47;50302.44;;;-142.97;25.40
8451;BME280;4262;50.980;13.892;2023-04-02T13:51:35;50325.84;;;-142.97;25.13
8451;BME280;4262;50.980;13.892;2023-04-02T13:54:06;50306.34;;;-142.97;25.75
8451;BME280;4262;50.980;13.892;2023-04-02T13:56:35;50296.59;;;-142.97;25.84
8451;BME280;4262;50.980;13.892;2023-04-02T13:59:04;50316.09;;;-142.97;25.68
8451;BME280;4262;50.980;13.892;2023-04-02T14:01:31;50300.50;;;-142.97;26.04
8451;BME280;4262;50.980;13.892;2023-04-02T14:03:59;50312.19;;;-142.97;25.83
8451;BME280;4262;50.980;13.892;2023-04-02T14:06:42;50327.78;;;-142.97;26.32
8451;BME280;4262;50.980;13.892;2023-04-02T14:09:19;50327.78;;;-142.97;26.12
8451;BME280;4262;50.980;13.892;2023-04-02T14:11:56;50296.59;;;-142.97;25.71
8451;BME280;4262;50.980;13.892;2023-04-02T14:14:50;50345.34;;;-142.97;25.18
8451;BME280;4262;50.980;13.892;2023-04-02T14:17:29;50337.53;;;-142.97;25.86
8451;BME280;4262;50.980;13.892;2023-04-02T14:20:09;50296.59;;;-142.97;25.26
8451;BME280;4262;50.980;13.892;2023-04-02T14:22:57;50312.19;;;-142.97;25.35
8451;BME280;4262;50.980;13.892;2023-04-02T14:25:38;50321.94;;;-142.97;25.35
8451;BME280;4262;50.980;13.892;2023-04-02T14:28:18;50318.03;;;-142.97;25.64
8451;BME280;4262;50.980;13.892;2023-04-02T14:30:57;50353.13;;;-142.97;26.16
8451;BME280;4262;50.980;13.892;2023-04-02T14:33:37;50320.00;;;-142.97;25.71
8451;BME280;4262;50.980;13.892;2023-04-02T14:36:14;50325.84;;;-142.97;25.50
8451;BME280;4262;50.980;13.892;2023-04-02T14:38:53;50347.28;;;-142.97;25.45
8451;BME280;4262;50.980;13.892;2023-04-02T14:41:31;50306.34;;;-142.97;25.67
8451;BME280;4262;50.980;13.892;2023-04-02T14:44:07;50323.88;;;-142.97;25.50
8451;BME280;4262;50.980;13.892;2023-04-02T14:46:39;50345.34;;;-142.97;25.57
8451;BME280;4262;50.980;13.892;2023-04-02T14:49:19;50323.88;;;-142.97;25.06
8451;BME280;4262;50.980;13.892;2023-04-02T14:51:48;50325.84;;;-142.97;25.00
8451;BME280;4262;50.980;13.892;2023-04-02T14:54:21;50290.75;;;-142.97;25.28
8451;BME280;4262;50.980;13.892;2023-04-02T14:56:58;50282.94;;;-142.97;25.10
8451;BME280;4262;50.980;13.892;2023-04-02T14:59:31;50325.84;;;-142.97;25.21
8451;BME280;4262;50.980;13.892;2023-04-02T15:02:02;50353.13;;;-142.97;25.37
8451;BME280;4262;50.980;13.892;2023-04-02T15:04:32;50320.00;;;-142.97;25.63
8451;BME280;4262;50.980;13.892;2023-04-02T15:07:10;50318.03;;;-142.97;25.06
8451;BME280;4262;50.980;13.892;2023-04-02T15:09:43;50353.13;;;-142.97;24.94
8451;BME280;4262;50.980;13.892;2023-04-02T15:12:22;50360.94;;;-142.97;25.08
8451;BME280;4262;50.980;13.892;2023-04-02T15:15:01;50314.13;;;-142.97;25.42
8451;BME280;4262;50.980;13.892;2023-04-02T15:17:32;50327.78;;;-142.97;25.20
8451;BME280;4262;50.980;13.892;2023-04-02T15:20:11;50306.34;;;-142.97;25.30
8451;BME280;4262;50.980;13.892;2023-04-02T15:22:44;50329.72;;;-142.97;25.38
8451;BME280;4262;50.980;13.892;2023-04-02T15:25:27;50310.25;;;-142.97;25.44
8451;BME280;4262;50.980;13.892;2023-04-02T15:28:11;50325.84;;;-142.97;24.89
8451;BME280;4262;50.980;13.892;2023-04-02T15:30:47;50331.69;;;-142.97;25.16
8451;BME280;4262;50.980;13.892;2023-04-02T15:33:48;50306.34;;;-142.97;25.08
8451;BME280;4262;50.980;13.892;2023-04-02T15:36:28;50320.00;;;-142.97;25.30
8451;BME280;4262;50.980;13.892;2023-04-02T15:39:12;50345.34;;;-142.97;25.00
8451;BME280;4262;50.980;13.892;2023-04-02T15:41:55;50321.94;;;-142.97;25.25
8451;BME280;4262;50.980;13.892;2023-04-02T15:44:29;50323.88;;;-142.97;24.88
8451;BME280;4262;50.980;13.892;2023-04-02T15:47:06;50327.78;;;-142.97;24.97
8451;BME280;4262;50.980;13.892;2023-04-02T15:49:40;50312.19;;;-142.97;24.84
8451;BME280;4262;50.980;13.892;2023-04-02T15:52:11;50333.63;;;-142.97;24.57
8451;BME280;4262;50.980;13.892;2023-04-02T15:54:55;50364.81;;;-142.97;24.87
8451;BME280;4262;50.980;13.892;2023-04-02T15:57:43;50310.25;;;-142.97;24.83
8451;BME280;4262;50.980;13.892;2023-04-02T16:00:25;50306.34;;;-142.97;24.76
8451;BME280;4262;50.980;13.892;2023-04-02T16:06:21;50327.78;;;-142.97;25.62
8451;BME280;4262;50.980;13.892;2023-04-02T16:09:01;50331.69;;;-142.97;25.37
8451;BME280;4262;50.980;13.892;2023-04-02T16:11:35;50329.72;;;-142.97;24.93
8451;BME280;4262;50.980;13.892;2023-04-02T16:14:16;50333.63;;;-142.97;25.21
8451;BME280;4262;50.980;13.892;2023-04-02T16:16:48;50308.28;;;-142.97;25.13
8451;BME280;4262;50.980;13.892;2023-04-02T16:19:24;50339.47;;;-142.97;25.05
8451;BME280;4262;50.980;13.892;2023-04-02T16:22:04;50325.84;;;-142.97;24.64
8451;BME280;4262;50.980;13.892;2023-04-02T16:24:34;50333.63;;;-142.97;24.55
8451;BME280;4262;50.980;13.892;2023-04-02T16:27:17;50316.09;;;-142.97;24.88
8451;BME280;4262;50.980;13.892;2023-04-02T16:29:55;50290.75;;;-142.97;25.62
8451;BME280;4262;50.980;13.892;2023-04-02T16:32:38;50343.38;;;-142.97;25.36
8451;BME280;4262;50.980;13.892;2023-04-02T16:35:22;50339.47;;;-142.97;25.54
8451;BME280;4262;50.980;13.892;2023-04-02T16:38:00;50292.69;;;-142.97;25.97
8451;BME280;4262;50.980;13.892;2023-04-02T16:40:39;50325.84;;;-142.97;26.49
8451;BME280;4262;50.980;13.892;2023-04-02T16:43:18;50337.53;;;-142.97;25.38
8451;BME280;4262;50.980;13.892;2023-04-02T16:45:56;50343.38;;;-142.97;26.13
8451;BME280;4262;50.980;13.892;2023-04-02T16:48:36;50325.84;;;-142.97;25.40
8451;BME280;4262;50.980;13.892;2023-04-02T16:51:14;50306.34;;;-142.97;25.98
8451;BME280;4262;50.980;13.892;2023-04-02T16:53:52;50333.63;;;-142.97;25.43
8451;BME280;4262;50.980;13.892;2023-04-02T16:56:35;50321.94;;;-142.97;25.54
8451;BME280;4262;50.980;13.892;2023-04-02T16:59:16;50318.03;;;-142.97;25.98
8451;BME280;4262;50.980;13.892;2023-04-02T17:01:57;50323.88;;;-142.97;25.50
8451;BME280;4262;50.980;13.892;2023-04-02T17:04:43;50310.25;;;-142.97;25.33
8451;BME280;4262;50.980;13.892;2023-04-02T17:07:26;50318.03;;;-142.97;24.97
8451;BME280;4262;50.980;13.892;2023-04-02T17:10:22;50323.88;;;-142.97;24.91
8451;BME280;4262;50.980;13.892;2023-04-02T17:15:39;50333.63;;;-142.97;25.84
8451;BME280;4262;50.980;13.892;2023-04-02T17:18:12;50329.72;;;-142.97;25.63
8451;BME280;4262;50.980;13.892;2023-04-02T17:20:42;50308.28;;;-142.97;27.11
8451;BME280;4262;50.980;13.892;2023-04-02T17:23:14;50347.28;;;-142.97;25.83
8451;BME280;4262;50.980;13.892;2023-04-02T17:25:52;50337.53;;;-142.97;25.06
8451;BME280;4262;50.980;13.892;2023-04-02T17:28:22;50333.63;;;-142.97;25.30
8451;BME280;4262;50.980;13.892;2023-04-02T17:31:02;50302.44;;;-142.97;24.94
8451;BME280;4262;50.980;13.892;2023-04-02T17:33:31;50335.59;;;-142.97;25.54
8451;BME280;4262;50.980;13.892;2023-04-02T17:36:10;50339.47;;;-142.97;25.20
8451;BME280;4262;50.980;13.892;2023-04-02T17:38:50;50341.44;;;-142.97;25.24
8451;BME280;4262;50.980;13.892;2023-04-02T17:41:30;50306.34;;;-142.97;25.37
8451;BME280;4262;50.980;13.892;2023-04-02T17:44:05;50337.53;;;-142.97;25.79
8451;BME280;4262;50.980;13.892;2023-04-02T17:46:42;50318.03;;;-142.97;25.93
8451;BME280;4262;50.980;13.892;2023-04-02T17:49:18;50357.03;;;-142.97;25.26
8451;BME280;4262;50.980;13.892;2023-04-02T17:51:53;50339.47;;;-142.97;25.48
8451;BME280;4262;50.980;13.892;2023-04-02T17:54:30;50347.28;;;-142.97;26.45
8451;BME280;4262;50.980;13.892;2023-04-02T17:57:17;50323.88;;;-142.97;26.16
8451;BME280;4262;50.980;13.892;2023-04-02T17:59:54;50341.44;;;-142.97;26.26
8451;BME280;4262;50.980;13.892;2023-04-02T18:02:38;50314.13;;;-142.97;26.15
8451;BME280;4262;50.980;13.892;2023-04-02T18:05:16;50321.94;;;-142.97;25.40
8451;BME280;4262;50.980;13.892;2023-04-02T18:07:55;50306.34;;;-142.97;25.83
8451;BME280;4262;50.980;13.892;2023-04-02T18:10:35;50349.22;;;-142.97;25.71
8451;BME280;4262;50.980;13.892;2023-04-02T18:13:12;50314.13;;;-142.97;25.98
8451;BME280;4262;50.980;13.892;2023-04-02T18:15:50;50323.88;;;-142.97;26.24
8451;BME280;4262;50.980;13.892;2023-04-02T18:18:32;50321.94;;;-142.97;26.36
8451;BME280;4262;50.980;13.892;2023-04-02T18:21:07;50345.34;;;-142.97;26.33
8451;BME280;4262;50.980;13.892;2023-04-02T18:23:47;50290.75;;;-142.97;26.46
8451;BME280;4262;50.980;13.892;2023-04-02T18:26:23;50331.69;;;-142.97;26.68
8451;BME280;4262;50.980;13.892;2023-04-02T18:29:00;50314.13;;;-142.97;26.36
8451;BME280;4262;50.980;13.892;2023-04-02T18:31:36;50323.88;;;-142.97;25.86
8451;BME280;4262;50.980;13.892;2023-04-02T18:34:19;50290.75;;;-142.97;26.14
8451;BME280;4262;50.980;13.892;2023-04-02T18:37:03;50321.94;;;-142.97;26.44
8451;BME280;4262;50.980;13.892;2023-04-02T18:39:43;50339.47;;;-142.97;26.93
8451;BME280;4262;50.980;13.892;2023-04-02T18:42:17;50349.22;;;-142.97;26.49
8451;BME280;4262;50.980;13.892;2023-04-02T18:44:55;50306.34;;;-142.97;25.98
8451;BME280;4262;50.980;13.892;2023-04-02T18:47:28;50366.78;;;-142.97;26.00